createdAt,value
2019-05-06T00:00:10.417Z,9.98
2019-05-06T00:01:10.401Z,10.07
2019-05-06T00:02:10.385Z,10.01
2019-05-06T00:03:10.388Z,10.05
2019-05-06T00:04:10.318Z,10.07
2019-05-06T00:05:10.409Z,10.04
2019-05-06T00:06:10.360Z,9.99
2019-05-06T00:07:10.342Z,10.01
2019-05-06T00:08:10.321Z,9.86
2019-05-06T00:09:10.310Z,9.87
2019-05-06T00:10:10.340Z,9.92
2019-05-06T00:11:10.258Z,9.84
2019-05-06T00:12:10.286Z,9.84
2019-05-06T00:13:10.261Z,9.84
2019-05-06T00:14:10.269Z,9.91
2019-05-06T00:15:10.276Z,9.99
2019-05-06T00:16:10.280Z,9.89
2019-05-06T00:17:10.230Z,9.92
2019-05-06T00:18:10.213Z,9.99
2019-05-06T00:19:10.217Z,10.05
2019-05-06T00:20:10.180Z,9.94
2019-05-06T00:21:10.250Z,10.01
2019-05-06T00:22:10.193Z,10.02
2019-05-06T00:23:10.187Z,9.94
2019-05-06T00:24:10.162Z,10.02
2019-05-06T00:25:10.190Z,10.01
2019-05-06T00:26:10.114Z,10.04
2019-05-06T00:27:10.129Z,9.99
2019-05-06T00:28:10.103Z,10.05
2019-05-06T00:29:10.113Z,9.99
2019-05-06T00:30:10.073Z,10.02
2019-05-06T00:31:13.294Z,10.05
2019-05-06T00:32:11.046Z,10.04
2019-05-06T00:33:10.044Z,9.99
2019-05-06T00:34:10.030Z,10.04
2019-05-06T00:35:10.025Z,9.99
2019-05-06T00:36:10.094Z,10.01
2019-05-06T00:37:10.006Z,10.04
2019-05-06T00:38:10.017Z,10.09
2019-05-06T00:39:10.002Z,10.02
2019-05-06T00:40:09.979Z,9.99
2019-05-06T00:41:09.968Z,10.01
2019-05-06T00:42:09.980Z,10.04
2019-05-06T00:43:09.937Z,10.01
2019-05-06T00:44:09.936Z,10.04
2019-05-06T00:45:09.925Z,10.01
2019-05-06T00:46:09.878Z,10.12
2019-05-06T00:47:09.950Z,10.02
2019-05-06T00:48:09.911Z,10.05
2019-05-06T00:49:09.890Z,10.19
2019-05-06T00:50:09.838Z,10.15
2019-05-06T00:51:09.889Z,10.10
2019-05-06T00:52:09.918Z,10.19
2019-05-06T00:53:09.809Z,10.13
2019-05-06T00:54:09.766Z,10.17
2019-05-06T00:55:09.805Z,10.19
2019-05-06T00:56:09.840Z,10.19
2019-05-06T00:57:09.797Z,10.12
2019-05-06T00:58:09.837Z,10.20
2019-05-06T00:59:09.727Z,10.25
2019-05-06T01:00:09.766Z,10.19
2019-05-06T01:01:23.193Z,10.22
2019-05-06T01:02:10.802Z,10.22
2019-05-06T01:03:09.798Z,10.25
2019-05-06T01:04:09.698Z,10.15
2019-05-06T01:05:09.728Z,10.33
2019-05-06T01:06:09.687Z,10.20
2019-05-06T01:07:09.680Z,10.28
2019-05-06T01:08:09.728Z,10.17
2019-05-06T01:09:09.663Z,10.17
2019-05-06T01:10:09.658Z,10.34
2019-05-06T01:11:09.644Z,10.28
2019-05-06T01:12:09.653Z,10.30
2019-05-06T01:13:09.679Z,10.30
2019-05-06T01:14:09.608Z,10.22
2019-05-06T01:15:09.584Z,10.17
2019-05-06T01:16:09.610Z,10.16
2019-05-06T01:17:09.595Z,10.23
2019-05-06T01:18:09.589Z,10.26
2019-05-06T01:19:09.560Z,10.17
2019-05-06T01:20:09.512Z,10.09
2019-05-06T01:21:09.531Z,10.10
2019-05-06T01:22:09.537Z,10.12
2019-05-06T01:23:09.521Z,10.10
2019-05-06T01:24:09.577Z,10.17
2019-05-06T01:25:09.505Z,10.10
2019-05-06T01:26:09.493Z,10.13
2019-05-06T01:27:09.475Z,10.10
2019-05-06T01:28:09.472Z,10.12
2019-05-06T01:29:09.463Z,10.19
2019-05-06T01:30:09.421Z,10.10
2019-05-06T01:31:09.419Z,10.09
2019-05-06T01:32:09.418Z,10.13
2019-05-06T01:33:09.402Z,10.19
2019-05-06T01:34:09.416Z,10.20
2019-05-06T01:35:09.359Z,10.16
2019-05-06T01:36:09.365Z,10.17
2019-05-06T01:37:09.322Z,10.12
2019-05-06T01:38:09.351Z,10.17
2019-05-06T01:39:09.394Z,10.16
2019-05-06T01:40:09.327Z,10.13
2019-05-06T01:41:09.248Z,10.12
2019-05-06T01:42:09.319Z,10.13
2019-05-06T01:43:09.284Z,10.16
2019-05-06T01:44:09.327Z,10.20
2019-05-06T01:45:09.316Z,10.05
2019-05-06T01:46:09.253Z,10.02
2019-05-06T01:47:09.275Z,10.02
2019-05-06T01:48:09.238Z,10.01
2019-05-06T01:49:09.232Z,9.98
2019-05-06T01:50:09.287Z,10.05
2019-05-06T01:51:09.175Z,10.09
2019-05-06T01:52:09.199Z,10.05
2019-05-06T01:53:09.179Z,9.94
2019-05-06T01:54:09.166Z,10.05
2019-05-06T01:55:09.225Z,9.97
2019-05-06T01:56:09.181Z,9.94
2019-05-06T01:57:09.116Z,9.87
2019-05-06T01:58:09.138Z,9.86
2019-05-06T01:59:09.097Z,9.92
2019-05-06T02:00:09.171Z,9.86
2019-05-06T02:01:09.105Z,9.84
2019-05-06T02:02:09.083Z,9.84
2019-05-06T02:03:09.082Z,9.92
2019-05-06T02:04:09.069Z,9.89
2019-05-06T02:05:09.068Z,9.80
2019-05-06T02:06:09.120Z,9.80
2019-05-06T02:07:09.015Z,9.86
2019-05-06T02:08:09.026Z,9.76
2019-05-06T02:09:09.023Z,9.86
2019-05-06T02:10:09.039Z,9.76
2019-05-06T02:11:17.002Z,9.79
2019-05-06T02:12:08.912Z,9.77
2019-05-06T02:13:08.902Z,9.77
2019-05-06T02:14:08.885Z,9.69
2019-05-06T02:15:08.905Z,9.76
2019-05-06T02:16:08.942Z,9.76
2019-05-06T02:17:08.919Z,9.74
2019-05-06T02:18:08.908Z,9.72
2019-05-06T02:19:08.888Z,9.72
2019-05-06T02:20:08.934Z,9.65
2019-05-06T02:21:08.934Z,9.65
2019-05-06T02:22:08.851Z,9.64
2019-05-06T02:23:08.848Z,9.66
2019-05-06T02:24:08.824Z,9.54
2019-05-06T02:25:08.856Z,9.61
2019-05-06T02:26:08.863Z,9.58
2019-05-06T02:27:08.814Z,9.54
2019-05-06T02:28:08.811Z,9.54
2019-05-06T02:29:08.781Z,9.54
2019-05-06T02:30:08.757Z,9.56
2019-05-06T02:31:08.812Z,9.43
2019-05-06T02:32:21.123Z,9.44
2019-05-06T02:33:09.748Z,9.44
2019-05-06T02:34:08.713Z,9.41
2019-05-06T02:35:08.725Z,9.41
2019-05-06T02:36:08.776Z,9.39
2019-05-06T02:37:08.683Z,9.43
2019-05-06T02:38:08.707Z,9.31
2019-05-06T02:39:09.578Z,9.29
2019-05-06T02:40:08.743Z,9.26
2019-05-06T02:41:08.673Z,9.31
2019-05-06T02:42:12.791Z,9.32
2019-05-06T02:43:09.210Z,9.28
2019-05-06T02:44:11.011Z,9.23
2019-05-06T02:45:12.577Z,9.28
2019-05-06T02:46:08.599Z,9.28
2019-05-06T02:47:08.667Z,9.25
2019-05-06T02:48:08.605Z,9.18
2019-05-06T02:49:08.583Z,9.21
2019-05-06T02:50:08.567Z,9.23
2019-05-06T02:51:08.548Z,9.10
2019-05-06T02:52:08.575Z,9.08
2019-05-06T02:53:08.540Z,9.18
2019-05-06T02:54:08.540Z,9.08
2019-05-06T02:55:08.508Z,9.13
2019-05-06T02:56:08.508Z,9.02
2019-05-06T02:57:08.557Z,9.08
2019-05-06T02:58:08.472Z,9.02
2019-05-06T02:59:08.512Z,9.08
2019-05-06T03:00:08.447Z,9.02
2019-05-06T03:01:08.432Z,8.95
2019-05-06T03:02:08.435Z,8.95
2019-05-06T03:03:08.485Z,8.99
2019-05-06T03:04:08.374Z,8.94
2019-05-06T03:05:08.394Z,8.94
2019-05-06T03:06:08.384Z,8.91
2019-05-06T03:07:08.364Z,8.92
2019-05-06T03:08:08.429Z,8.92
2019-05-06T03:09:08.363Z,8.92
2019-05-06T03:10:08.362Z,8.88
2019-05-06T03:11:08.332Z,8.91
2019-05-06T03:12:08.319Z,8.82
2019-05-06T03:13:08.368Z,8.82
2019-05-06T03:14:08.317Z,8.88
2019-05-06T03:15:08.281Z,8.87
2019-05-06T03:16:08.253Z,8.82
2019-05-06T03:17:08.276Z,8.81
2019-05-06T03:18:08.305Z,8.74
2019-05-06T03:19:08.253Z,8.84
2019-05-06T03:20:08.238Z,8.79
2019-05-06T03:21:08.254Z,8.78
2019-05-06T03:22:08.239Z,8.87
2019-05-06T03:23:08.266Z,8.73
2019-05-06T03:24:08.178Z,8.74
2019-05-06T03:25:08.199Z,8.79
2019-05-06T03:26:08.180Z,8.70
2019-05-06T03:27:08.165Z,8.60
2019-05-06T03:28:08.211Z,8.61
2019-05-06T03:29:08.142Z,8.56
2019-05-06T03:30:08.151Z,8.49
2019-05-06T03:31:08.504Z,8.41
2019-05-06T03:32:08.153Z,8.44
2019-05-06T03:33:37.600Z,8.36
2019-05-06T03:34:35.967Z,8.26
2019-05-06T03:35:27.516Z,8.26
2019-05-06T03:36:18.579Z,8.26
2019-05-06T03:37:09.089Z,8.26
2019-05-06T03:38:08.096Z,8.13
2019-05-06T03:39:08.042Z,8.13
2019-05-06T03:40:08.053Z,8.10
2019-05-06T03:41:08.014Z,8.03
2019-05-06T03:42:08.030Z,8.20
2019-05-06T03:43:08.064Z,8.10
2019-05-06T03:44:07.988Z,7.98
2019-05-06T03:45:07.975Z,7.97
2019-05-06T03:46:07.985Z,7.95
2019-05-06T03:47:07.965Z,7.85
2019-05-06T03:48:07.958Z,7.88
2019-05-06T03:49:07.984Z,7.90
2019-05-06T03:50:07.923Z,7.93
2019-05-06T03:51:07.900Z,8.01
2019-05-06T03:52:07.910Z,8.05
2019-05-06T03:53:07.963Z,8.03
2019-05-06T03:54:07.921Z,8.10
2019-05-06T03:55:07.882Z,8.10
2019-05-06T03:56:07.867Z,8.09
2019-05-06T03:57:07.843Z,8.13
2019-05-06T03:58:07.817Z,8.18
2019-05-06T03:59:07.882Z,8.20
2019-05-06T04:00:07.828Z,8.13
2019-05-06T04:01:07.834Z,8.10
2019-05-06T04:02:07.745Z,8.09
2019-05-06T04:03:07.729Z,8.03
2019-05-06T04:04:07.747Z,8.09
2019-05-06T04:05:07.705Z,8.13
2019-05-06T04:06:07.712Z,8.03
2019-05-06T04:07:07.697Z,8.10
2019-05-06T04:08:07.673Z,8.05
2019-05-06T04:09:07.697Z,8.09
2019-05-06T04:10:07.671Z,8.06
2019-05-06T04:11:07.642Z,8.13
2019-05-06T04:12:07.632Z,8.03
2019-05-06T04:13:07.624Z,8.08
2019-05-06T04:14:07.640Z,8.08
2019-05-06T04:15:07.603Z,8.06
2019-05-06T04:16:07.586Z,8.12
2019-05-06T04:17:07.599Z,8.06
2019-05-06T04:18:07.604Z,8.08
2019-05-06T04:19:07.586Z,8.13
2019-05-06T04:20:07.550Z,8.15
2019-05-06T04:21:08.975Z,8.13
2019-05-06T04:22:07.525Z,8.10
2019-05-06T04:23:07.518Z,8.09
2019-05-06T04:24:07.536Z,8.03
2019-05-06T04:25:07.497Z,8.12
2019-05-06T04:26:07.490Z,8.06
2019-05-06T04:27:07.477Z,8.08
2019-05-06T04:28:07.460Z,8.03
2019-05-06T04:29:07.478Z,8.08
2019-05-06T04:30:07.441Z,7.97
2019-05-06T04:31:07.430Z,7.90
2019-05-06T04:32:07.424Z,7.83
2019-05-06T04:33:07.412Z,7.82
2019-05-06T04:34:13.949Z,7.79
2019-05-06T04:35:08.392Z,7.69
2019-05-06T04:36:07.377Z,7.69
2019-05-06T04:37:07.364Z,7.73
2019-05-06T04:38:07.365Z,7.70
2019-05-06T04:39:07.385Z,7.80
2019-05-06T04:40:07.358Z,7.83
2019-05-06T04:41:08.163Z,7.80
2019-05-06T04:42:09.483Z,7.87
2019-05-06T04:43:07.301Z,7.94
2019-05-06T04:44:07.303Z,8.06
2019-05-06T04:45:07.321Z,8.03
2019-05-06T04:46:07.278Z,7.95
2019-05-06T04:47:07.268Z,7.97
2019-05-06T04:48:07.254Z,8.05
2019-05-06T04:49:10.887Z,8.00
2019-05-06T04:50:08.247Z,8.01
2019-05-06T04:51:07.216Z,8.05
2019-05-06T04:52:07.216Z,8.08
2019-05-06T04:53:07.202Z,8.12
2019-05-06T04:54:07.210Z,8.06
2019-05-06T04:55:07.215Z,8.06
2019-05-06T04:56:07.175Z,8.10
2019-05-06T04:57:07.161Z,8.06
2019-05-06T04:58:07.151Z,8.12
2019-05-06T04:59:07.141Z,8.06
2019-05-06T05:00:07.162Z,8.03
2019-05-06T05:01:07.129Z,8.06
2019-05-06T05:02:07.113Z,8.08
2019-05-06T05:03:07.096Z,8.06
2019-05-06T05:04:22.965Z,8.06
2019-05-06T05:05:08.121Z,7.93
2019-05-06T05:06:07.071Z,7.93
2019-05-06T05:07:07.061Z,7.95
2019-05-06T05:08:07.058Z,7.85
2019-05-06T05:09:07.034Z,7.82
2019-05-06T05:10:07.062Z,7.70
2019-05-06T05:11:07.594Z,7.70
2019-05-06T05:12:07.013Z,7.70
2019-05-06T05:13:06.989Z,7.63
2019-05-06T05:14:06.975Z,7.88
2019-05-06T05:15:07.003Z,7.90
2019-05-06T05:16:06.960Z,7.88
2019-05-06T05:17:06.956Z,7.93
2019-05-06T05:18:07.020Z,7.95
2019-05-06T05:19:06.931Z,8.08
2019-05-06T05:20:07.024Z,8.06
2019-05-06T05:21:06.984Z,8.03
2019-05-06T05:22:06.927Z,8.12
2019-05-06T05:23:06.907Z,8.13
2019-05-06T05:24:06.874Z,8.12
2019-05-06T05:25:06.868Z,8.24
2019-05-06T05:26:06.886Z,8.16
2019-05-06T05:27:06.840Z,8.23
2019-05-06T05:28:06.832Z,8.27
2019-05-06T05:29:06.841Z,8.30
2019-05-06T05:30:06.828Z,8.27
2019-05-06T05:31:06.839Z,8.30
2019-05-06T05:32:06.786Z,8.23
2019-05-06T05:33:06.782Z,8.31
2019-05-06T05:34:06.765Z,8.24
2019-05-06T05:35:06.757Z,8.30
2019-05-06T05:36:06.793Z,8.30
2019-05-06T05:37:06.738Z,8.31
2019-05-06T05:38:06.730Z,8.20
2019-05-06T05:39:06.718Z,8.09
2019-05-06T05:40:06.705Z,8.16
2019-05-06T05:41:06.723Z,8.06
2019-05-06T05:42:06.688Z,8.19
2019-05-06T05:43:06.676Z,8.27
2019-05-06T05:44:06.658Z,8.28
2019-05-06T05:45:06.648Z,8.30
2019-05-06T05:46:06.669Z,8.26
2019-05-06T05:47:06.664Z,8.38
2019-05-06T05:48:06.694Z,8.44
2019-05-06T05:49:06.611Z,8.53
2019-05-06T05:50:06.598Z,8.49
2019-05-06T05:51:06.616Z,8.56
2019-05-06T05:52:06.577Z,8.67
2019-05-06T05:53:06.566Z,8.58
2019-05-06T05:54:06.551Z,8.52
2019-05-06T05:55:06.542Z,8.56
2019-05-06T05:56:06.574Z,8.60
2019-05-06T05:57:06.527Z,8.67
2019-05-06T05:58:06.512Z,8.70
2019-05-06T05:59:06.497Z,8.74
2019-05-06T06:00:06.505Z,8.87
2019-05-06T06:01:06.512Z,8.92
2019-05-06T06:02:06.470Z,9.00
2019-05-06T06:03:07.250Z,8.95
2019-05-06T06:04:06.440Z,8.89
2019-05-06T06:05:06.432Z,8.95
2019-05-06T06:06:06.420Z,9.08
2019-05-06T06:07:06.439Z,9.06
2019-05-06T06:08:06.403Z,9.19
2019-05-06T06:09:06.393Z,9.23
2019-05-06T06:10:06.390Z,9.19
2019-05-06T06:11:06.371Z,9.26
2019-05-06T06:12:06.385Z,9.28
2019-05-06T06:13:06.344Z,9.40
2019-05-06T06:14:06.338Z,9.46
2019-05-06T06:15:07.102Z,9.41
2019-05-06T06:16:06.847Z,9.41
2019-05-06T06:17:06.931Z,9.44
2019-05-06T06:18:06.290Z,9.54
2019-05-06T06:19:06.280Z,9.56
2019-05-06T06:20:06.275Z,9.66
2019-05-06T06:21:17.938Z,9.68
2019-05-06T06:22:07.292Z,9.80
2019-05-06T06:23:06.290Z,9.83
2019-05-06T06:24:06.226Z,9.82
2019-05-06T06:25:06.287Z,9.92
2019-05-06T06:26:06.206Z,9.95
2019-05-06T06:27:06.235Z,10.02
2019-05-06T06:28:06.188Z,9.86
2019-05-06T06:29:06.178Z,9.91
2019-05-06T06:30:06.162Z,9.99
2019-05-06T06:31:06.150Z,9.97
2019-05-06T06:32:06.187Z,9.76
2019-05-06T06:33:06.134Z,9.84
2019-05-06T06:34:06.128Z,9.83
2019-05-06T06:35:11.094Z,9.76
2019-05-06T06:36:07.098Z,9.69
2019-05-06T06:37:06.894Z,9.64
2019-05-06T06:38:06.107Z,9.56
2019-05-06T06:39:06.112Z,9.65
2019-05-06T06:40:06.062Z,9.64
2019-05-06T06:41:06.119Z,9.68
2019-05-06T06:42:06.096Z,9.66
2019-05-06T06:43:06.055Z,9.64
2019-05-06T06:44:06.069Z,9.66
2019-05-06T06:45:06.050Z,9.55
2019-05-06T06:46:09.350Z,9.66
2019-05-06T06:47:06.047Z,9.61
2019-05-06T06:48:06.009Z,9.58
2019-05-06T06:49:05.957Z,9.61
2019-05-06T06:50:05.951Z,9.59
2019-05-06T06:51:05.937Z,9.73
2019-05-06T06:52:11.215Z,9.82
2019-05-06T06:53:06.919Z,10.01
2019-05-06T06:54:05.911Z,10.26
2019-05-06T06:55:06.138Z,10.30
2019-05-06T06:56:06.052Z,10.26
2019-05-06T06:57:09.328Z,10.41
2019-05-06T06:58:05.995Z,10.51
2019-05-06T06:59:06.193Z,10.54
2019-05-06T07:00:05.938Z,10.56
2019-05-06T07:01:06.670Z,10.30
2019-05-06T07:02:06.782Z,10.26
2019-05-06T07:03:06.055Z,10.41
2019-05-06T07:04:10.517Z,10.53
2019-05-06T07:05:06.811Z,10.56
2019-05-06T07:06:05.945Z,10.54
2019-05-06T07:07:05.776Z,10.72
2019-05-06T07:08:05.817Z,10.78
2019-05-06T07:09:05.742Z,10.87
2019-05-06T07:10:05.751Z,10.78
2019-05-06T07:11:05.722Z,10.74
2019-05-06T07:12:05.779Z,10.86
2019-05-06T07:13:05.725Z,10.87
2019-05-06T07:14:05.699Z,10.97
2019-05-06T07:15:05.709Z,11.00
2019-05-06T07:16:05.708Z,10.99
2019-05-06T07:17:05.672Z,11.23
2019-05-06T07:18:05.746Z,11.22
2019-05-06T07:19:05.647Z,11.14
2019-05-06T07:20:05.626Z,11.27
2019-05-06T07:21:06.426Z,11.17
2019-05-06T07:22:07.023Z,10.90
2019-05-06T07:23:05.593Z,10.78
2019-05-06T07:24:05.610Z,10.84
2019-05-06T07:25:05.599Z,11.10
2019-05-06T07:26:05.606Z,11.19
2019-05-06T07:27:05.559Z,11.26
2019-05-06T07:28:05.543Z,11.41
2019-05-06T07:29:16.766Z,11.54
2019-05-06T07:30:06.522Z,11.69
2019-05-06T07:31:18.749Z,12.22
2019-05-06T07:32:06.502Z,12.83
2019-05-06T07:33:06.104Z,12.55
2019-05-06T07:34:05.517Z,12.06
2019-05-06T07:35:06.359Z,12.49
2019-05-06T07:36:05.461Z,14.82
2019-05-06T07:37:05.454Z,16.43
2019-05-06T07:38:05.525Z,18.00
2019-05-06T07:39:05.454Z,18.60
2019-05-06T07:40:05.415Z,16.87
2019-05-06T07:41:05.415Z,16.02
2019-05-06T07:42:05.444Z,16.79
2019-05-06T07:43:05.413Z,17.16
2019-05-06T07:44:05.377Z,16.71
2019-05-06T07:45:06.389Z,16.54
2019-05-06T07:46:05.370Z,16.10
2019-05-06T07:47:05.342Z,15.75
2019-05-06T07:48:05.331Z,15.52
2019-05-06T07:49:05.346Z,16.04
2019-05-06T07:50:05.311Z,15.94
2019-05-06T07:51:05.300Z,16.87
2019-05-06T07:52:05.283Z,16.68
2019-05-06T07:53:05.272Z,18.83
2019-05-06T07:54:05.284Z,20.37
2019-05-06T07:55:05.263Z,21.32
2019-05-06T07:56:05.538Z,21.95
2019-05-06T07:57:05.261Z,21.27
2019-05-06T07:58:05.249Z,21.15
2019-05-06T07:59:05.249Z,22.08
2019-05-06T08:00:05.202Z,21.73
2019-05-06T08:01:05.188Z,23.36
2019-05-06T08:02:05.178Z,24.60
2019-05-06T08:03:05.234Z,24.42
2019-05-06T08:04:05.191Z,24.61
2019-05-06T08:05:07.591Z,25.25
2019-05-06T08:06:05.137Z,25.08
2019-05-06T08:07:05.127Z,25.18
2019-05-06T08:08:05.120Z,25.77
2019-05-06T08:09:05.131Z,26.88
2019-05-06T08:10:05.102Z,27.55
2019-05-06T08:11:05.095Z,25.77
2019-05-06T08:12:05.073Z,24.10
2019-05-06T08:13:05.065Z,23.20
2019-05-06T08:14:05.101Z,23.65
2019-05-06T08:15:05.922Z,22.39
2019-05-06T08:16:05.038Z,23.61
2019-05-06T08:17:05.035Z,24.35
2019-05-06T08:18:05.028Z,25.26
2019-05-06T08:19:05.037Z,26.75
2019-05-06T08:20:04.991Z,27.64
2019-05-06T08:21:04.981Z,25.87
2019-05-06T08:22:04.978Z,24.32
2019-05-06T08:23:04.969Z,23.73
2019-05-06T08:24:04.981Z,25.25
2019-05-06T08:25:04.946Z,23.86
2019-05-06T08:26:11.996Z,22.44
2019-05-06T08:27:05.949Z,21.93
2019-05-06T08:28:04.920Z,22.48
2019-05-06T08:29:04.911Z,21.55
2019-05-06T08:30:04.902Z,20.72
2019-05-06T08:31:04.889Z,19.70
2019-05-06T08:32:04.901Z,18.45
2019-05-06T08:33:04.858Z,17.56
2019-05-06T08:34:04.862Z,17.06
2019-05-06T08:35:04.868Z,16.91
2019-05-06T08:36:11.735Z,16.57
2019-05-06T08:37:05.821Z,17.79
2019-05-06T08:38:04.808Z,19.27
2019-05-06T08:39:04.795Z,21.88
2019-05-06T08:40:04.824Z,23.91
2019-05-06T08:41:04.782Z,25.70
2019-05-06T08:42:04.771Z,26.88
2019-05-06T08:43:04.793Z,25.04
2019-05-06T08:44:04.752Z,23.61
2019-05-06T08:45:07.097Z,22.65
2019-05-06T08:46:04.724Z,21.76
2019-05-06T08:47:04.727Z,21.73
2019-05-06T08:48:04.719Z,24.11
2019-05-06T08:49:04.744Z,24.98
2019-05-06T08:50:04.712Z,26.53
2019-05-06T08:51:04.677Z,26.62
2019-05-06T08:52:04.664Z,27.39
2019-05-06T08:53:05.205Z,26.73
2019-05-06T08:54:04.664Z,27.71
2019-05-06T08:55:04.906Z,27.03
2019-05-06T08:56:04.622Z,28.37
2019-05-06T08:57:04.612Z,29.45
2019-05-06T08:58:04.604Z,27.80
2019-05-06T08:59:04.596Z,25.85
2019-05-06T09:00:04.618Z,24.66
2019-05-06T09:01:04.580Z,23.36
2019-05-06T09:02:04.563Z,22.20
2019-05-06T09:03:04.705Z,21.18
2019-05-06T09:04:11.347Z,20.37
2019-05-06T09:05:06.201Z,19.37
2019-05-06T09:06:07.394Z,19.22
2019-05-06T09:07:04.518Z,21.12
2019-05-06T09:08:04.506Z,21.32
2019-05-06T09:09:04.498Z,23.13
2019-05-06T09:10:04.523Z,23.39
2019-05-06T09:11:04.485Z,22.45
2019-05-06T09:12:04.482Z,21.15
2019-05-06T09:13:04.453Z,19.96
2019-05-06T09:14:04.441Z,19.16
2019-05-06T09:15:04.431Z,18.38
2019-05-06T09:16:04.460Z,18.05
2019-05-06T09:17:04.417Z,17.85
2019-05-06T09:18:04.407Z,17.74
2019-05-06T09:19:04.703Z,17.71
2019-05-06T09:20:04.379Z,17.64
2019-05-06T09:21:04.393Z,17.41
2019-05-06T09:22:04.360Z,17.27
2019-05-06T09:23:04.739Z,17.97
2019-05-06T09:24:04.354Z,20.31
2019-05-06T09:25:04.333Z,22.11
2019-05-06T09:26:04.342Z,23.86
2019-05-06T09:27:04.306Z,25.50
2019-05-06T09:28:04.304Z,27.03
2019-05-06T09:29:04.299Z,24.77
2019-05-06T09:30:04.281Z,23.63
2019-05-06T09:31:04.296Z,22.30
2019-05-06T09:32:04.256Z,21.09
2019-05-06T09:33:04.247Z,20.39
2019-05-06T09:34:04.233Z,19.59
2019-05-06T09:35:04.251Z,19.29
2019-05-06T09:36:04.245Z,18.98
2019-05-06T09:37:04.250Z,18.80
2019-05-06T09:38:04.198Z,18.34
2019-05-06T09:39:04.187Z,18.05
2019-05-06T09:40:04.175Z,17.57
2019-05-06T09:41:05.027Z,17.05
2019-05-06T09:42:04.717Z,16.56
2019-05-06T09:43:04.734Z,15.88
2019-05-06T09:44:04.138Z,15.72
2019-05-06T09:45:04.117Z,17.16
2019-05-06T09:46:04.133Z,20.02
2019-05-06T09:47:04.101Z,22.53
2019-05-06T09:48:04.403Z,24.48
2019-05-06T09:49:04.085Z,23.40
2019-05-06T09:50:04.074Z,22.55
2019-05-06T09:51:04.144Z,21.93
2019-05-06T09:52:04.094Z,21.40
2019-05-06T09:53:04.035Z,20.80
2019-05-06T09:54:04.235Z,20.25
2019-05-06T09:55:04.070Z,19.85
2019-05-06T09:56:04.309Z,19.54
2019-05-06T09:57:03.998Z,19.14
2019-05-06T09:58:03.991Z,18.41
2019-05-06T09:59:03.971Z,17.63
2019-05-06T10:00:04.880Z,17.14
2019-05-06T10:01:03.953Z,16.79
2019-05-06T10:02:03.974Z,16.74
2019-05-06T10:03:03.998Z,16.26
2019-05-06T10:04:03.921Z,16.17
2019-05-06T10:05:03.908Z,16.60
2019-05-06T10:06:03.895Z,17.26
2019-05-06T10:07:03.912Z,17.20
2019-05-06T10:08:03.881Z,18.74
2019-05-06T10:09:05.137Z,21.32
2019-05-06T10:10:04.691Z,20.29
2019-05-06T10:11:03.849Z,19.44
2019-05-06T10:12:03.865Z,18.84
2019-05-06T10:13:03.826Z,17.78
2019-05-06T10:14:03.819Z,16.58
2019-05-06T10:15:03.808Z,15.91
2019-05-06T10:16:03.791Z,15.77
2019-05-06T10:17:04.399Z,15.67
2019-05-06T10:18:04.474Z,15.59
2019-05-06T10:19:03.840Z,15.40
2019-05-06T10:20:03.755Z,15.29
2019-05-06T10:21:03.751Z,15.09
2019-05-06T10:22:03.762Z,15.04
2019-05-06T10:23:03.723Z,15.06
2019-05-06T10:24:03.705Z,15.15
2019-05-06T10:25:03.980Z,15.27
2019-05-06T10:26:04.697Z,15.98
2019-05-06T10:27:03.702Z,16.39
2019-05-06T10:28:03.677Z,16.26
2019-05-06T10:29:03.659Z,16.32
2019-05-06T10:30:03.656Z,16.08
2019-05-06T10:31:03.638Z,15.55
2019-05-06T10:32:03.661Z,15.21
2019-05-06T10:33:03.619Z,14.97
2019-05-06T10:34:03.612Z,14.66
2019-05-06T10:35:03.601Z,14.54
2019-05-06T10:36:03.578Z,14.53
2019-05-06T10:37:14.658Z,14.33
2019-05-06T10:38:04.559Z,14.33
2019-05-06T10:39:03.546Z,14.43
2019-05-06T10:40:03.559Z,14.44
2019-05-06T10:41:07.470Z,14.45
2019-05-06T10:42:03.798Z,14.63
2019-05-06T10:43:03.535Z,14.72
2019-05-06T10:44:03.500Z,14.72
2019-05-06T10:45:03.482Z,14.70
2019-05-06T10:46:04.126Z,14.82
2019-05-06T10:47:03.463Z,14.69
2019-05-06T10:48:03.478Z,14.73
2019-05-06T10:49:03.438Z,14.70
2019-05-06T10:50:03.423Z,14.97
2019-05-06T10:51:03.666Z,14.94
2019-05-06T10:52:03.438Z,14.89
2019-05-06T10:53:03.432Z,15.02
2019-05-06T10:54:03.386Z,14.94
2019-05-06T10:55:03.551Z,14.73
2019-05-06T10:56:03.360Z,14.40
2019-05-06T10:57:03.352Z,14.30
2019-05-06T10:58:03.350Z,14.33
2019-05-06T10:59:03.353Z,14.40
2019-05-06T11:00:03.324Z,14.59
2019-05-06T11:01:03.684Z,14.68
2019-05-06T11:02:05.401Z,14.55
2019-05-06T11:03:03.315Z,14.53
2019-05-06T11:04:03.309Z,14.62
2019-05-06T11:05:03.271Z,14.54
2019-05-06T11:06:03.266Z,14.55
2019-05-06T11:07:04.108Z,14.43
2019-05-06T11:08:03.232Z,14.30
2019-05-06T11:09:03.392Z,14.72
2019-05-06T11:10:03.212Z,15.03
2019-05-06T11:11:14.803Z,15.29
2019-05-06T11:12:04.197Z,15.64
2019-05-06T11:13:03.533Z,15.82
2019-05-06T11:14:03.269Z,15.95
2019-05-06T11:15:03.648Z,15.92
2019-05-06T11:16:03.476Z,15.80
2019-05-06T11:17:05.226Z,15.97
2019-05-06T11:18:04.784Z,15.57
2019-05-06T11:19:05.156Z,15.07
2019-05-06T11:20:06.365Z,14.91
2019-05-06T11:21:03.634Z,15.03
2019-05-06T11:22:03.801Z,14.94
2019-05-06T11:23:03.089Z,14.99
2019-05-06T11:24:06.161Z,15.04
2019-05-06T11:25:03.353Z,15.09
2019-05-06T11:26:03.307Z,14.88
2019-05-06T11:27:03.616Z,14.79
2019-05-06T11:28:03.104Z,14.72
2019-05-06T11:29:05.173Z,14.63
2019-05-06T11:30:02.998Z,14.53
2019-05-06T11:31:03.005Z,14.45
2019-05-06T11:32:02.989Z,14.55
2019-05-06T11:33:04.768Z,14.44
2019-05-06T11:34:03.050Z,14.41
2019-05-06T11:35:03.731Z,14.29
2019-05-06T11:36:02.938Z,14.32
2019-05-06T11:37:02.927Z,14.25
2019-05-06T11:38:02.917Z,14.59
2019-05-06T11:39:02.935Z,14.63
2019-05-06T11:40:02.889Z,14.44
2019-05-06T11:41:02.886Z,14.37
2019-05-06T11:42:23.694Z,14.41
2019-05-06T11:43:03.859Z,14.44
2019-05-06T11:44:02.881Z,14.50
2019-05-06T11:45:03.274Z,14.33
2019-05-06T11:46:02.840Z,14.29
2019-05-06T11:47:03.376Z,14.14
2019-05-06T11:48:02.803Z,14.12
2019-05-06T11:49:02.852Z,14.30
2019-05-06T11:50:05.143Z,14.53
2019-05-06T11:51:02.789Z,14.68
2019-05-06T11:52:02.770Z,14.72
2019-05-06T11:53:02.762Z,14.81
2019-05-06T11:54:07.653Z,14.97
2019-05-06T11:55:03.767Z,14.99
2019-05-06T11:56:02.731Z,15.28
2019-05-06T11:57:02.996Z,15.25
2019-05-06T11:58:02.820Z,15.17
2019-05-06T11:59:02.700Z,15.03
2019-05-06T12:00:03.182Z,15.21
2019-05-06T12:01:02.909Z,14.79
2019-05-06T12:02:02.900Z,14.91
2019-05-06T12:03:02.641Z,14.82
2019-05-06T12:04:03.206Z,14.96
2019-05-06T12:05:02.657Z,14.86
2019-05-06T12:06:03.842Z,14.96
2019-05-06T12:07:11.086Z,14.88
2019-05-06T12:08:07.944Z,15.09
2019-05-06T12:09:06.474Z,15.06
2019-05-06T12:10:02.677Z,15.19
2019-05-06T12:11:03.044Z,15.42
2019-05-06T12:12:03.316Z,15.55
2019-05-06T12:13:02.912Z,15.67
2019-05-06T12:14:02.692Z,15.79
2019-05-06T12:15:03.554Z,15.61
2019-05-06T12:16:02.633Z,15.52
2019-05-06T12:17:02.501Z,15.46
2019-05-06T12:18:03.782Z,15.35
2019-05-06T12:19:02.930Z,15.44
2019-05-06T12:20:03.100Z,15.39
2019-05-06T12:21:09.043Z,15.36
2019-05-06T12:22:03.461Z,15.37
2019-05-06T12:23:04.433Z,15.28
2019-05-06T12:24:03.061Z,15.21
2019-05-06T12:25:04.580Z,14.97
2019-05-06T12:26:02.632Z,14.91
2019-05-06T12:27:03.232Z,14.97
2019-05-06T12:28:03.091Z,15.25
2019-05-06T12:29:02.481Z,15.11
2019-05-06T12:30:05.363Z,15.19
2019-05-06T12:31:02.381Z,15.09
2019-05-06T12:32:03.665Z,15.14
2019-05-06T12:33:03.150Z,15.10
2019-05-06T12:34:02.774Z,15.18
2019-05-06T12:35:03.517Z,15.11
2019-05-06T12:36:02.604Z,15.21
2019-05-06T12:37:02.679Z,15.22
2019-05-06T12:38:06.734Z,15.21
2019-05-06T12:39:06.623Z,15.31
2019-05-06T12:40:03.434Z,15.28
2019-05-06T12:41:03.364Z,15.14
2019-05-06T12:42:02.259Z,15.07
2019-05-06T12:43:03.885Z,15.04
2019-05-06T12:44:03.136Z,15.07
2019-05-06T12:45:03.687Z,15.04
2019-05-06T12:46:02.813Z,15.18
2019-05-06T12:47:03.312Z,15.22
2019-05-06T12:48:03.044Z,15.46
2019-05-06T12:49:03.195Z,15.64
2019-05-06T12:50:02.899Z,15.68
2019-05-06T12:51:03.094Z,15.73
2019-05-06T12:52:02.813Z,15.82
2019-05-06T12:53:02.147Z,15.84
2019-05-06T12:54:03.563Z,15.95
2019-05-06T12:55:17.460Z,16.00
2019-05-06T12:56:03.347Z,15.92
2019-05-06T12:57:03.380Z,15.90
2019-05-06T12:58:02.913Z,15.88
2019-05-06T12:59:02.327Z,15.67
2019-05-06T13:00:03.429Z,15.62
2019-05-06T13:01:04.025Z,15.52
2019-05-06T13:02:02.876Z,15.40